createdAt,value
2022-09-15T00:00:26.114Z,82.17
2022-09-15T00:00:58.440Z,82.17
2022-09-15T00:01:33.290Z,82.31
2022-09-15T00:02:05.620Z,82.03
2022-09-15T00:02:37.865Z,82.31
2022-09-15T00:03:12.644Z,82.45
2022-09-15T00:03:44.771Z,82.46
2022-09-15T00:04:19.524Z,82.33
2022-09-15T00:04:51.597Z,82.51
2022-09-15T00:05:23.747Z,82.24
2022-09-15T00:05:56.595Z,82.37
2022-09-15T00:06:31.403Z,82.65
2022-09-15T00:07:03.489Z,82.70
2022-09-15T00:07:35.706Z,82.71
2022-09-15T00:08:10.597Z,82.80
2022-09-15T00:08:43.231Z,82.82
2022-09-15T00:09:15.313Z,82.90
2022-09-15T00:09:49.991Z,82.56
2022-09-15T00:10:22.101Z,83.04
2022-09-15T00:10:56.175Z,83.18
2022-09-15T00:11:32.400Z,83.38
2022-09-15T00:12:05.050Z,83.18
2022-09-15T00:12:39.718Z,83.42
2022-09-15T00:13:11.821Z,83.58
2022-09-15T00:13:47.185Z,83.53
2022-09-15T00:14:19.453Z,83.21
2022-09-15T00:14:51.606Z,83.43
2022-09-15T00:15:24.214Z,83.35
2022-09-15T00:15:58.898Z,83.60
2022-09-15T00:16:32.673Z,83.48
2022-09-15T00:17:05.016Z,83.38
2022-09-15T00:17:39.686Z,83.41
2022-09-15T00:18:11.927Z,83.59
2022-09-15T00:18:45.219Z,83.61
2022-09-15T00:19:19.893Z,83.22
2022-09-15T00:19:52.151Z,83.34
2022-09-15T00:20:24.320Z,83.45
2022-09-15T00:20:59.163Z,83.29
2022-09-15T00:21:33.154Z,83.44
2022-09-15T00:22:05.326Z,83.29
2022-09-15T00:22:40.050Z,83.46
2022-09-15T00:23:14.398Z,83.43
2022-09-15T00:23:48.265Z,83.08
2022-09-15T00:24:23.060Z,83.72
2022-09-15T00:24:55.187Z,83.30
2022-09-15T00:25:27.463Z,83.60
2022-09-15T00:26:02.121Z,83.92
2022-09-15T00:26:34.323Z,84.01
2022-09-15T00:27:06.523Z,84.12
2022-09-15T00:27:44.264Z,83.78
2022-09-15T00:28:17.918Z,83.74
2022-09-15T00:28:50.484Z,84.41
2022-09-15T00:29:25.327Z,83.99
2022-09-15T00:29:57.536Z,84.07
2022-09-15T00:30:29.663Z,84.51
2022-09-15T00:31:08.465Z,84.46
2022-09-15T00:31:40.647Z,84.42
2022-09-15T00:32:12.735Z,84.52
2022-09-15T00:32:47.404Z,84.54
2022-09-15T00:33:21.100Z,84.51
2022-09-15T00:33:55.715Z,84.29
2022-09-15T00:34:30.494Z,84.21
2022-09-15T00:35:02.771Z,84.76
2022-09-15T00:35:37.440Z,84.27
2022-09-15T00:36:14.287Z,84.23
2022-09-15T00:36:46.402Z,84.92
2022-09-15T00:37:18.522Z,84.56
2022-09-15T00:37:53.172Z,84.77
2022-09-15T00:38:25.321Z,84.46
2022-09-15T00:38:57.785Z,84.95
2022-09-15T00:39:32.735Z,85.00
2022-09-15T00:40:05.964Z,85.27
2022-09-15T00:40:44.616Z,85.01
2022-09-15T00:41:21.956Z,85.52
2022-09-15T00:41:54.109Z,85.34
2022-09-15T00:42:26.173Z,85.47
2022-09-15T00:43:03.625Z,85.36
2022-09-15T00:43:45.797Z,85.37
2022-09-15T00:44:55.117Z,85.38
2022-09-15T00:45:27.542Z,85.72
2022-09-15T00:45:59.799Z,85.44
2022-09-15T00:46:36.882Z,85.50
2022-09-15T00:47:19.394Z,85.54
2022-09-15T00:47:52.710Z,85.99
2022-09-15T00:48:27.415Z,85.81
2022-09-15T00:49:04.039Z,86.01
2022-09-15T00:49:39.198Z,85.92
2022-09-15T00:50:19.399Z,85.62
2022-09-15T00:50:56.641Z,85.71
2022-09-15T00:51:35.207Z,86.02
2022-09-15T00:52:13.132Z,86.24
2022-09-15T00:52:49.575Z,85.76
2022-09-15T00:53:23.691Z,86.03
2022-09-15T00:54:01.253Z,86.22
2022-09-15T00:54:38.956Z,85.83
2022-09-15T00:55:15.096Z,86.27
2022-09-15T00:55:52.282Z,86.37
2022-09-15T00:56:25.485Z,86.16
2022-09-15T00:57:01.030Z,86.64
2022-09-15T00:57:39.694Z,86.36
2022-09-15T00:58:18.958Z,86.22
2022-09-15T00:58:55.841Z,86.61
2022-09-15T00:59:34.851Z,86.26
2022-09-15T01:00:11.527Z,86.67
2022-09-15T01:00:55.429Z,86.79
2022-09-15T01:01:30.784Z,86.43
2022-09-15T01:02:11.430Z,86.64
2022-09-15T01:02:46.335Z,86.58
2022-09-15T01:03:18.613Z,86.73
2022-09-15T01:03:53.322Z,86.43
2022-09-15T01:04:25.912Z,86.26
2022-09-15T01:04:59.092Z,86.35
2022-09-15T01:05:38.390Z,86.40
2022-09-15T01:06:16.374Z,86.23
2022-09-15T01:06:55.621Z,86.36
2022-09-15T01:07:32.374Z,86.42
2022-09-15T01:08:13.431Z,86.51
2022-09-15T01:08:51.683Z,86.68
2022-09-15T01:09:27.189Z,86.46
2022-09-15T01:10:02.490Z,86.31
2022-09-15T01:10:39.751Z,86.87
2022-09-15T01:11:11.924Z,86.72
2022-09-15T01:11:44.911Z,86.87
2022-09-15T01:12:19.830Z,86.72
2022-09-15T01:12:54.674Z,86.53
2022-09-15T01:13:29.886Z,86.96
2022-09-15T01:14:04.920Z,87.07
2022-09-15T01:14:37.677Z,86.75
2022-09-15T01:15:10.134Z,86.69
2022-09-15T01:15:55.595Z,87.07
2022-09-15T01:16:35.730Z,86.70
2022-09-15T01:17:16.299Z,86.77
2022-09-15T01:18:04.338Z,87.00
2022-09-15T01:18:47.209Z,86.92
2022-09-15T01:19:53.516Z,87.31
2022-09-15T01:20:45.448Z,87.25
2022-09-15T01:21:27.702Z,87.30
2022-09-15T01:22:12.462Z,87.25
2022-09-15T01:22:58.812Z,87.10
2022-09-15T01:24:05.958Z,87.57
2022-09-15T01:24:51.478Z,87.13
2022-09-15T01:25:47.507Z,87.29
2022-09-15T01:26:59.240Z,87.35
2022-09-15T01:28:06.357Z,87.79
2022-09-15T01:29:02.435Z,87.91
2022-09-15T01:30:12.200Z,88.02
2022-09-15T01:30:52.398Z,88.01
2022-09-15T01:31:28.071Z,87.86
2022-09-15T01:32:21.249Z,87.69
2022-09-15T01:33:11.729Z,88.09
2022-09-15T01:33:53.653Z,87.87
2022-09-15T01:34:30.289Z,87.78
2022-09-15T01:35:09.466Z,87.77
2022-09-15T01:35:55.226Z,87.91
2022-09-15T01:36:38.089Z,87.98
2022-09-15T01:37:15.049Z,88.21
2022-09-15T01:37:55.731Z,88.41
2022-09-15T01:38:42.111Z,88.03
2022-09-15T01:39:21.127Z,88.06
2022-09-15T01:39:54.735Z,88.19
2022-09-15T01:40:32.691Z,88.10
2022-09-15T01:41:12.431Z,87.88
2022-09-15T01:41:48.466Z,88.64
2022-09-15T01:42:24.489Z,88.23
2022-09-15T01:43:01.003Z,88.42
2022-09-15T01:43:37.010Z,88.61
2022-09-15T01:44:15.661Z,88.60
2022-09-15T01:44:52.095Z,88.21
2022-09-15T01:45:29.378Z,88.42
2022-09-15T01:46:08.779Z,88.66
2022-09-15T01:46:47.216Z,88.41
2022-09-15T01:47:21.666Z,88.66
2022-09-15T01:47:59.739Z,88.44
2022-09-15T01:48:34.317Z,88.64
2022-09-15T01:49:09.886Z,88.39
2022-09-15T01:49:51.419Z,88.29
2022-09-15T01:50:26.749Z,88.32
2022-09-15T01:51:02.078Z,88.53
2022-09-15T01:51:38.733Z,88.00
2022-09-15T01:52:11.185Z,88.22
2022-09-15T01:52:48.433Z,88.37
2022-09-15T01:53:25.069Z,88.12
2022-09-15T01:53:59.582Z,88.04
2022-09-15T01:54:40.251Z,88.06
2022-09-15T01:55:20.831Z,87.94
2022-09-15T01:55:56.618Z,88.10
2022-09-15T01:56:28.929Z,88.30
2022-09-15T01:57:04.798Z,87.79
2022-09-15T01:57:36.971Z,87.97
2022-09-15T01:58:09.559Z,87.89
2022-09-15T01:58:44.932Z,88.06
2022-09-15T01:59:17.042Z,87.80
2022-09-15T01:59:49.866Z,87.98
2022-09-15T02:00:22.033Z,87.44
2022-09-15T02:01:04.860Z,87.82
2022-09-15T02:01:51.805Z,87.82
2022-09-15T02:02:33.915Z,87.51
2022-09-15T02:03:18.251Z,87.70
2022-09-15T02:03:55.775Z,87.78
2022-09-15T02:04:33.803Z,87.60
2022-09-15T02:05:09.490Z,87.95
2022-09-15T02:05:45.374Z,87.86
2022-09-15T02:06:27.685Z,87.86
2022-09-15T02:07:08.217Z,88.04
2022-09-15T02:07:48.007Z,87.52
2022-09-15T02:08:31.157Z,88.10
2022-09-15T02:09:09.202Z,88.03
2022-09-15T02:09:51.250Z,87.85
2022-09-15T02:10:31.067Z,87.97
2022-09-15T02:11:11.790Z,88.25
2022-09-15T02:11:56.883Z,87.94
2022-09-15T02:12:38.500Z,88.06
2022-09-15T02:13:17.201Z,88.05
2022-09-15T02:14:03.428Z,88.01
2022-09-15T02:14:48.214Z,88.48
2022-09-15T02:15:30.303Z,88.24
2022-09-15T02:16:05.012Z,88.24
2022-09-15T02:16:44.296Z,87.94
2022-09-15T02:17:19.619Z,88.21
2022-09-15T02:17:55.503Z,88.04
2022-09-15T02:18:37.949Z,88.34
2022-09-15T02:19:17.813Z,88.03
2022-09-15T02:19:55.666Z,88.46
2022-09-15T02:20:34.553Z,88.03
2022-09-15T02:21:12.822Z,88.34
2022-09-15T02:21:57.726Z,88.36
2022-09-15T02:22:32.830Z,88.11
2022-09-15T02:23:12.881Z,88.51
2022-09-15T02:23:53.674Z,88.51
2022-09-15T02:24:32.336Z,88.25
2022-09-15T02:25:11.382Z,88.51
2022-09-15T02:25:49.022Z,88.56
2022-09-15T02:26:25.497Z,88.45
2022-09-15T02:27:01.269Z,88.65
2022-09-15T02:27:39.039Z,88.59
2022-09-15T02:28:14.271Z,88.37
2022-09-15T02:28:48.506Z,88.74
2022-09-15T02:29:25.890Z,88.62
2022-09-15T02:30:03.348Z,88.63
2022-09-15T02:30:42.144Z,88.48
2022-09-15T02:31:16.788Z,88.89
2022-09-15T02:31:57.899Z,88.66
2022-09-15T02:32:32.780Z,88.34
2022-09-15T02:33:08.534Z,88.49
2022-09-15T02:33:46.367Z,88.62
2022-09-15T02:34:22.795Z,88.34
2022-09-15T02:34:57.438Z,88.71
2022-09-15T02:35:36.082Z,88.39
2022-09-15T02:36:11.126Z,88.81
2022-09-15T02:36:44.573Z,88.64
2022-09-15T02:37:21.224Z,88.76
2022-09-15T02:37:54.472Z,88.32
2022-09-15T02:38:30.207Z,88.25
2022-09-15T02:39:08.411Z,88.61
2022-09-15T02:39:45.750Z,88.04
2022-09-15T02:40:21.003Z,88.29
2022-09-15T02:40:53.265Z,88.34
2022-09-15T02:41:25.925Z,88.45
2022-09-15T02:41:59.790Z,88.57
2022-09-15T02:42:35.538Z,88.41
2022-09-15T02:43:11.237Z,88.02
2022-09-15T02:43:45.279Z,88.08
2022-09-15T02:44:20.197Z,88.37
2022-09-15T02:44:52.654Z,88.37
2022-09-15T02:45:25.608Z,87.92
2022-09-15T02:46:00.463Z,88.25
2022-09-15T02:46:33.390Z,88.11
2022-09-15T02:47:08.584Z,88.28
2022-09-15T02:47:43.421Z,87.84
2022-09-15T02:48:15.631Z,88.27
2022-09-15T02:48:48.154Z,88.00
2022-09-15T02:49:23.240Z,87.84
2022-09-15T02:49:55.699Z,88.21
2022-09-15T02:50:28.113Z,88.34
2022-09-15T02:51:02.762Z,88.03
2022-09-15T02:51:34.906Z,87.92
2022-09-15T02:52:07.459Z,88.10
2022-09-15T02:52:42.146Z,88.24
2022-09-15T02:53:14.285Z,88.00
2022-09-15T02:53:46.481Z,87.97
2022-09-15T02:54:19.073Z,87.91
2022-09-15T02:54:54.461Z,88.07
2022-09-15T02:55:29.197Z,88.27
2022-09-15T02:56:01.569Z,88.07
2022-09-15T02:56:36.276Z,87.77
2022-09-15T02:57:09.364Z,88.13
2022-09-15T02:57:41.527Z,88.04
2022-09-15T02:58:16.218Z,87.90
2022-09-15T02:58:48.518Z,87.95
2022-09-15T02:59:20.570Z,87.96
2022-09-15T03:00:13.052Z,87.92
2022-09-15T03:00:47.913Z,88.27
2022-09-15T03:01:20.291Z,88.53
2022-09-15T03:01:53.057Z,88.19
2022-09-15T03:02:30.530Z,88.21
2022-09-15T03:03:02.661Z,88.40
2022-09-15T03:03:36.465Z,88.19
2022-09-15T03:04:13.484Z,88.13
2022-09-15T03:04:45.611Z,88.14
2022-09-15T03:05:20.054Z,88.03
2022-09-15T03:05:54.873Z,88.46
2022-09-15T03:06:30.795Z,88.21
2022-09-15T03:07:02.867Z,88.02
2022-09-15T03:07:38.212Z,88.56
2022-09-15T03:08:10.504Z,88.23
2022-09-15T03:08:43.172Z,88.02
2022-09-15T03:09:17.895Z,88.49
2022-09-15T03:09:50.486Z,87.97
2022-09-15T03:10:24.236Z,88.01
2022-09-15T03:11:00.210Z,88.05
2022-09-15T03:11:33.617Z,88.45
2022-09-15T03:12:06.306Z,88.01
2022-09-15T03:12:39.446Z,88.45
2022-09-15T03:13:14.263Z,88.06
2022-09-15T03:13:46.975Z,88.07
2022-09-15T03:14:19.047Z,88.42
2022-09-15T03:14:53.989Z,88.23
2022-09-15T03:15:27.305Z,88.14
2022-09-15T03:15:59.576Z,88.07
2022-09-15T03:16:37.159Z,88.02
2022-09-15T03:17:09.384Z,87.94
2022-09-15T03:17:45.660Z,87.94
2022-09-15T03:18:20.529Z,87.84
2022-09-15T03:18:54.193Z,88.11
2022-09-15T03:19:26.771Z,87.97
2022-09-15T03:20:01.471Z,87.88
2022-09-15T03:20:33.565Z,88.39
2022-09-15T03:21:08.024Z,87.98
2022-09-15T03:21:42.698Z,87.90
2022-09-15T03:22:14.814Z,88.13
2022-09-15T03:22:47.868Z,87.89
2022-09-15T03:23:22.540Z,87.80
2022-09-15T03:23:54.604Z,87.89
2022-09-15T03:24:26.850Z,88.20
2022-09-15T03:25:01.519Z,88.15
2022-09-15T03:25:33.709Z,87.85
2022-09-15T03:26:07.985Z,87.54
2022-09-15T03:26:42.648Z,87.65
2022-09-15T03:27:14.852Z,87.87
2022-09-15T03:27:47.357Z,87.96
2022-09-15T03:28:22.078Z,87.94
2022-09-15T03:28:54.260Z,87.89
2022-09-15T03:29:27.627Z,87.89
2022-09-15T03:30:02.450Z,87.94
2022-09-15T03:30:34.681Z,87.62
2022-09-15T03:31:07.406Z,87.64
2022-09-15T03:31:42.226Z,87.32
2022-09-15T03:32:14.498Z,87.81
2022-09-15T03:32:49.191Z,87.79
2022-09-15T03:33:24.523Z,87.32
2022-09-15T03:33:56.623Z,87.41
2022-09-15T03:34:28.715Z,87.48
2022-09-15T03:35:04.027Z,87.49
2022-09-15T03:35:36.125Z,87.39
2022-09-15T03:36:11.875Z,87.57
2022-09-15T03:36:44.142Z,87.54
2022-09-15T03:37:16.442Z,87.67
2022-09-15T03:37:51.172Z,87.57
2022-09-15T03:38:23.387Z,87.49
2022-09-15T03:38:57.122Z,87.63
2022-09-15T03:39:31.789Z,87.65
2022-09-15T03:40:04.547Z,87.23
2022-09-15T03:40:37.916Z,87.17
2022-09-15T03:41:14.670Z,87.62
2022-09-15T03:41:46.797Z,87.72
2022-09-15T03:42:19.786Z,87.79
2022-09-15T03:42:54.418Z,87.35
2022-09-15T03:43:27.152Z,87.24
2022-09-15T03:43:59.324Z,87.76
2022-09-15T03:44:34.018Z,87.47
2022-09-15T03:45:07.151Z,87.64
2022-09-15T03:45:39.770Z,87.58
2022-09-15T03:46:14.838Z,87.49
2022-09-15T03:46:46.946Z,87.72
2022-09-15T03:47:19.005Z,87.91
2022-09-15T03:47:56.295Z,87.69
2022-09-15T03:48:31.011Z,87.92
2022-09-15T03:49:03.663Z,87.89
2022-09-15T03:49:38.642Z,87.51
2022-09-15T03:50:10.711Z,87.73
2022-09-15T03:50:43.158Z,87.36
2022-09-15T03:51:17.970Z,87.60
2022-09-15T03:51:50.225Z,87.68
2022-09-15T03:52:22.322Z,87.56
2022-09-15T03:52:58.152Z,87.51
2022-09-15T03:53:34.636Z,87.47
2022-09-15T03:54:06.917Z,87.76
2022-09-15T03:54:38.998Z,87.43
2022-09-15T03:55:13.681Z,87.72
2022-09-15T03:55:45.936Z,87.47
2022-09-15T03:56:22.662Z,87.45
2022-09-15T03:56:57.356Z,87.59
2022-09-15T03:57:29.426Z,87.41
2022-09-15T03:58:01.487Z,87.76
2022-09-15T03:58:36.258Z,87.47
2022-09-15T03:59:08.880Z,87.29
2022-09-15T03:59:40.958Z,87.37
2022-09-15T04:00:17.354Z,87.60
2022-09-15T04:00:49.478Z,87.31
2022-09-15T04:01:21.978Z,87.52
2022-09-15T04:01:56.714Z,87.15
2022-09-15T04:02:28.871Z,87.67
2022-09-15T04:03:03.803Z,87.05
2022-09-15T04:03:44.205Z,87.40
2022-09-15T04:04:18.729Z,87.41
2022-09-15T04:04:53.403Z,87.43
2022-09-15T04:05:25.660Z,87.22
2022-09-15T04:05:57.735Z,87.43
2022-09-15T04:06:32.425Z,87.74
2022-09-15T04:07:04.617Z,87.64
2022-09-15T04:07:37.009Z,87.25
2022-09-15T04:08:13.176Z,87.71
2022-09-15T04:08:48.160Z,87.36
2022-09-15T04:09:21.638Z,87.19
2022-09-15T04:09:54.475Z,87.18
2022-09-15T04:10:29.485Z,87.30
2022-09-15T04:11:04.727Z,87.35
2022-09-15T04:11:37.767Z,87.48
2022-09-15T04:12:12.447Z,87.40
2022-09-15T04:12:44.604Z,87.53
2022-09-15T04:13:16.853Z,87.31
2022-09-15T04:13:52.374Z,87.00
2022-09-15T04:14:24.643Z,87.17
2022-09-15T04:14:56.699Z,87.14
2022-09-15T04:15:31.354Z,87.22
2022-09-15T04:16:05.427Z,86.86
2022-09-15T04:16:37.796Z,87.36
2022-09-15T04:17:12.570Z,87.16
2022-09-15T04:17:44.678Z,86.88
2022-09-15T04:18:19.365Z,86.98
2022-09-15T04:18:55.291Z,86.98
2022-09-15T04:19:27.761Z,87.04
2022-09-15T04:19:59.889Z,87.11
2022-09-15T04:20:35.312Z,87.20
2022-09-15T04:21:11.628Z,87.36
2022-09-15T04:21:43.802Z,87.29
2022-09-15T04:22:18.479Z,87.52
2022-09-15T04:22:50.611Z,87.56
2022-09-15T04:23:22.692Z,87.37
2022-09-15T04:23:57.862Z,87.05
2022-09-15T04:24:30.141Z,87.34
2022-09-15T04:25:02.358Z,87.33
2022-09-15T04:25:37.047Z,87.60
2022-09-15T04:26:14.278Z,87.14
2022-09-15T04:26:49.010Z,87.38
2022-09-15T04:27:21.184Z,87.11
2022-09-15T04:27:53.410Z,87.38
2022-09-15T04:28:29.169Z,87.29
2022-09-15T04:29:04.432Z,87.35
2022-09-15T04:29:37.026Z,87.21
2022-09-15T04:30:12.582Z,87.82
2022-09-15T04:30:44.748Z,87.85
2022-09-15T04:31:18.386Z,87.49
2022-09-15T04:31:53.358Z,87.87
2022-09-15T04:32:25.463Z,87.76
2022-09-15T04:32:57.547Z,87.66
2022-09-15T04:33:35.363Z,87.47
2022-09-15T04:34:07.443Z,87.88
2022-09-15T04:34:41.545Z,87.47
2022-09-15T04:35:16.349Z,87.75
2022-09-15T04:35:48.936Z,87.60
2022-09-15T04:36:23.375Z,87.55
2022-09-15T04:36:58.092Z,87.55
2022-09-15T04:37:30.400Z,87.77
2022-09-15T04:38:02.502Z,88.00
2022-09-15T04:38:38.070Z,87.79
2022-09-15T04:39:10.195Z,87.98
2022-09-15T04:39:42.539Z,87.65
2022-09-15T04:40:17.622Z,87.91
2022-09-15T04:40:49.755Z,87.74
2022-09-15T04:41:22.344Z,87.67
2022-09-15T04:41:57.439Z,87.33
2022-09-15T04:42:29.637Z,87.79
2022-09-15T04:43:04.316Z,87.82
2022-09-15T04:43:36.741Z,87.65
2022-09-15T04:44:08.927Z,87.40
2022-09-15T04:44:43.946Z,87.42
2022-09-15T04:45:16.103Z,87.70
2022-09-15T04:45:48.220Z,87.56
2022-09-15T04:46:23.696Z,87.48
2022-09-15T04:46:55.893Z,87.15
2022-09-15T04:47:28.432Z,87.04
2022-09-15T04:48:00.497Z,87.44
2022-09-15T04:48:38.236Z,87.30
2022-09-15T04:49:10.406Z,86.90
2022-09-15T04:49:43.343Z,86.97
2022-09-15T04:50:18.237Z,87.06
2022-09-15T04:50:50.350Z,86.78
2022-09-15T04:51:22.952Z,87.06
2022-09-15T04:51:57.834Z,87.08
2022-09-15T04:52:30.166Z,86.74
2022-09-15T04:53:02.379Z,86.76
2022-09-15T04:53:37.994Z,86.91
2022-09-15T04:54:10.103Z,86.59
2022-09-15T04:54:42.423Z,86.92
2022-09-15T04:55:14.579Z,86.68
2022-09-15T04:55:49.298Z,86.77
2022-09-15T04:56:23.380Z,86.49
2022-09-15T04:56:55.485Z,86.25
2022-09-15T04:57:30.236Z,86.30
2022-09-15T04:58:03.407Z,86.50
2022-09-15T04:58:39.466Z,86.19
2022-09-15T04:59:17.114Z,86.59
2022-09-15T04:59:49.202Z,86.22
2022-09-15T05:00:21.539Z,86.21
2022-09-15T05:00:56.252Z,86.46
2022-09-15T05:01:29.983Z,86.24
2022-09-15T05:02:02.185Z,86.17
2022-09-15T05:02:36.979Z,86.29
2022-09-15T05:03:09.483Z,86.51
2022-09-15T05:03:44.431Z,86.07
2022-09-15T05:04:19.146Z,86.39
2022-09-15T05:04:51.713Z,86.55
2022-09-15T05:05:23.827Z,86.12
2022-09-15T05:05:58.543Z,86.47
2022-09-15T05:06:30.642Z,86.22
2022-09-15T05:07:02.714Z,86.27
2022-09-15T05:07:37.510Z,86.50
2022-09-15T05:08:09.658Z,86.22
2022-09-15T05:08:41.945Z,85.95
2022-09-15T05:09:16.865Z,86.14
2022-09-15T05:09:48.950Z,86.24
2022-09-15T05:10:21.219Z,85.80
2022-09-15T05:10:55.903Z,86.01
2022-09-15T05:11:28.459Z,85.78
2022-09-15T05:12:03.232Z,85.91
2022-09-15T05:12:35.367Z,85.78
2022-09-15T05:13:07.533Z,85.78
2022-09-15T05:13:43.620Z,85.40
2022-09-15T05:14:15.846Z,85.89
2022-09-15T05:14:47.924Z,85.72
2022-09-15T05:15:23.117Z,85.82
2022-09-15T05:15:55.227Z,85.50
2022-09-15T05:16:29.563Z,85.40
2022-09-15T05:17:04.317Z,85.47
2022-09-15T05:17:36.389Z,85.36
2022-09-15T05:18:09.075Z,85.53
2022-09-15T05:18:47.781Z,85.75
2022-09-15T05:19:19.905Z,85.18
2022-09-15T05:19:52.026Z,85.20
2022-09-15T05:20:26.699Z,85.00
2022-09-15T05:21:00.023Z,84.98
2022-09-15T05:21:32.993Z,85.25
2022-09-15T05:22:07.667Z,85.41
2022-09-15T05:22:41.929Z,85.39
2022-09-15T05:23:14.292Z,85.07
2022-09-15T05:23:49.288Z,85.41
2022-09-15T05:24:21.427Z,84.89
2022-09-15T05:24:56.174Z,85.21
2022-09-15T05:25:28.905Z,84.88
2022-09-15T05:26:03.510Z,84.86
2022-09-15T05:26:38.187Z,84.74
2022-09-15T05:27:10.301Z,84.79
2022-09-15T05:27:42.491Z,84.64
2022-09-15T05:28:17.152Z,84.88
2022-09-15T05:28:49.718Z,85.09
2022-09-15T05:29:24.369Z,85.07
2022-09-15T05:30:16.195Z,84.79
2022-09-15T05:30:48.561Z,84.81
2022-09-15T05:31:25.589Z,85.01
2022-09-15T05:31:57.698Z,85.06
2022-09-15T05:32:32.376Z,84.70
2022-09-15T05:33:05.150Z,84.54
2022-09-15T05:33:37.997Z,85.02
2022-09-15T05:34:15.509Z,84.50
2022-09-15T05:34:47.687Z,84.50
2022-09-15T05:35:20.086Z,84.92
2022-09-15T05:35:56.274Z,84.50
2022-09-15T05:36:28.683Z,84.86
2022-09-15T05:37:03.346Z,84.40
2022-09-15T05:37:35.447Z,84.70
2022-09-15T05:38:07.516Z,84.39
2022-09-15T05:38:42.550Z,84.30
2022-09-15T05:39:14.683Z,84.58
2022-09-15T05:39:46.791Z,84.22
2022-09-15T05:40:22.352Z,84.18
2022-09-15T05:40:54.580Z,84.27
2022-09-15T05:41:27.964Z,84.51
2022-09-15T05:42:02.628Z,84.48
2022-09-15T05:42:35.572Z,84.42
2022-09-15T05:43:07.659Z,84.71
2022-09-15T05:43:42.990Z,84.38
2022-09-15T05:44:15.309Z,84.28
2022-09-15T05:44:49.980Z,84.28
2022-09-15T05:45:22.158Z,84.20
2022-09-15T05:45:55.606Z,84.16
2022-09-15T05:46:31.170Z,84.37
2022-09-15T05:47:03.709Z,84.26
2022-09-15T05:47:35.797Z,84.25
2022-09-15T05:48:10.921Z,84.32
2022-09-15T05:48:43.511Z,84.80
2022-09-15T05:49:18.197Z,84.75
2022-09-15T05:49:55.006Z,84.69
2022-09-15T05:50:27.118Z,84.80
2022-09-15T05:50:59.293Z,84.57
2022-09-15T05:51:33.966Z,84.61
2022-09-15T05:52:06.179Z,84.84
2022-09-15T05:52:38.309Z,84.95
2022-09-15T05:53:10.383Z,84.87
2022-09-15T05:53:45.330Z,84.66
2022-09-15T05:54:17.488Z,84.81
2022-09-15T05:54:54.703Z,84.59
2022-09-15T05:55:30.620Z,84.65
2022-09-15T05:56:05.653Z,84.59
2022-09-15T05:56:40.313Z,84.91
2022-09-15T05:57:12.401Z,84.55
2022-09-15T05:57:44.826Z,84.78
2022-09-15T05:58:16.903Z,84.63
2022-09-15T05:58:52.287Z,84.51
2022-09-15T05:59:24.383Z,84.59
2022-09-15T05:59:56.466Z,84.82
2022-09-15T06:00:31.161Z,84.95
2022-09-15T06:01:08.274Z,84.72
2022-09-15T06:01:43.028Z,84.80
2022-09-15T06:02:15.416Z,84.95
2022-09-15T06:02:47.647Z,84.48
2022-09-15T06:03:27.547Z,84.71
2022-09-15T06:04:02.931Z,85.06
2022-09-15T06:04:40.725Z,85.06
2022-09-15T06:05:13.186Z,85.11
2022-09-15T06:05:45.494Z,84.55
2022-09-15T06:06:21.954Z,84.68
2022-09-15T06:06:54.040Z,85.24
2022-09-15T06:07:26.138Z,85.03
2022-09-15T06:08:00.822Z,85.03
2022-09-15T06:08:34.563Z,85.57
2022-09-15T06:09:09.659Z,85.22
2022-09-15T06:09:42.387Z,85.45
2022-09-15T06:10:14.472Z,85.81
2022-09-15T06:10:47.537Z,85.30
2022-09-15T06:11:23.998Z,85.33
2022-09-15T06:11:56.074Z,85.54
2022-09-15T06:12:28.140Z,85.54
2022-09-15T06:13:02.827Z,85.86
2022-09-15T06:13:35.213Z,85.71
2022-09-15T06:14:07.295Z,85.74
2022-09-15T06:14:43.489Z,85.87
2022-09-15T06:15:15.755Z,85.68
2022-09-15T06:15:48.190Z,86.20
2022-09-15T06:16:25.230Z,85.89
2022-09-15T06:16:57.530Z,86.22
2022-09-15T06:17:32.798Z,85.75
2022-09-15T06:18:07.627Z,86.01
2022-09-15T06:18:40.972Z,86.15
2022-09-15T06:19:15.729Z,86.16
2022-09-15T06:19:50.443Z,86.04
2022-09-15T06:20:22.665Z,86.44
2022-09-15T06:20:57.593Z,86.10
2022-09-15T06:21:30.986Z,86.22
2022-09-15T06:22:03.074Z,85.97
2022-09-15T06:22:37.719Z,86.04
2022-09-15T06:23:09.814Z,86.23
2022-09-15T06:23:45.961Z,85.97
2022-09-15T06:24:23.307Z,85.62
2022-09-15T06:24:55.393Z,86.15
2022-09-15T06:25:27.506Z,86.00
2022-09-15T06:26:09.908Z,85.86
2022-09-15T06:26:42.087Z,85.70
2022-09-15T06:27:14.179Z,85.68
2022-09-15T06:27:51.962Z,85.74
2022-09-15T06:28:24.853Z,86.12
2022-09-15T06:28:58.584Z,85.55
2022-09-15T06:29:33.273Z,85.95
2022-09-15T06:30:06.675Z,85.53
2022-09-15T06:30:39.464Z,85.39
2022-09-15T06:31:16.037Z,85.36
2022-09-15T06:31:48.437Z,85.58
2022-09-15T06:32:20.921Z,85.60
2022-09-15T06:32:55.575Z,85.68
2022-09-15T06:33:27.772Z,85.52
2022-09-15T06:34:00.676Z,85.67
2022-09-15T06:34:35.756Z,85.29
2022-09-15T06:35:10.564Z,85.25
2022-09-15T06:35:42.652Z,85.14
2022-09-15T06:36:18.769Z,85.58
2022-09-15T06:36:50.924Z,85.32
2022-09-15T06:37:23.002Z,85.11
2022-09-15T06:37:57.654Z,85.52
2022-09-15T06:38:30.187Z,85.41
2022-09-15T06:39:05.136Z,84.93
2022-09-15T06:39:37.214Z,85.14
2022-09-15T06:40:10.393Z,84.88
2022-09-15T06:40:45.378Z,85.13
2022-09-15T06:41:18.139Z,84.57
2022-09-15T06:42:02.275Z,84.92
2022-09-15T06:42:35.237Z,84.77
2022-09-15T06:43:07.633Z,84.77
2022-09-15T06:43:42.739Z,84.49
2022-09-15T06:44:15.063Z,84.60
2022-09-15T06:44:47.585Z,84.82
2022-09-15T06:45:22.319Z,84.56
2022-09-15T06:46:02.539Z,84.41
2022-09-15T06:46:36.809Z,84.67
2022-09-15T06:47:11.687Z,84.39
2022-09-15T06:47:43.754Z,84.82
2022-09-15T06:48:24.516Z,84.35
2022-09-15T06:48:59.750Z,84.41
2022-09-15T06:49:31.943Z,84.38
2022-09-15T06:50:05.208Z,84.23
2022-09-15T06:50:42.507Z,84.22
2022-09-15T06:51:15.634Z,84.27
2022-09-15T06:51:48.315Z,84.48
2022-09-15T06:52:23.102Z,84.00
2022-09-15T06:52:55.191Z,84.00
2022-09-15T06:53:29.557Z,83.95
2022-09-15T06:54:04.712Z,83.99
2022-09-15T06:54:37.385Z,84.00
2022-09-15T06:55:09.773Z,84.06
2022-09-15T06:55:44.523Z,83.80
2022-09-15T06:56:18.959Z,83.75
2022-09-15T06:56:51.042Z,83.69
2022-09-15T06:57:25.867Z,84.05
2022-09-15T06:57:58.069Z,84.02
2022-09-15T06:58:30.227Z,84.01
2022-09-15T06:59:05.318Z,83.45
2022-09-15T06:59:37.419Z,83.46
2022-09-15T07:00:11.046Z,83.48
2022-09-15T07:00:46.437Z,83.62
2022-09-15T07:01:23.554Z,83.46
2022-09-15T07:02:02.714Z,83.66
2022-09-15T07:02:37.212Z,83.83
2022-09-15T07:03:09.513Z,83.45
2022-09-15T07:03:46.276Z,83.46
2022-09-15T07:04:18.443Z,83.36
2022-09-15T07:04:50.632Z,83.72
2022-09-15T07:05:25.689Z,83.29
2022-09-15T07:06:00.373Z,83.48
2022-09-15T07:06:36.375Z,83.43
2022-09-15T07:07:08.663Z,83.37
2022-09-15T07:07:40.968Z,83.31
2022-09-15T07:08:15.670Z,83.32
2022-09-15T07:08:48.386Z,83.56
2022-09-15T07:09:23.058Z,83.05
2022-09-15T07:09:55.815Z,83.38
2022-09-15T07:10:27.947Z,83.45
2022-09-15T07:11:03.079Z,83.26
2022-09-15T07:11:35.414Z,83.37
2022-09-15T07:12:08.278Z,83.10
2022-09-15T07:12:43.017Z,83.06
2022-09-15T07:13:15.225Z,82.84
2022-09-15T07:13:48.442Z,83.10
2022-09-15T07:14:23.104Z,83.14
2022-09-15T07:14:55.185Z,82.69
2022-09-15T07:15:27.592Z,82.50
2022-09-15T07:16:04.373Z,82.39
2022-09-15T07:16:36.672Z,82.58
2022-09-15T07:17:11.440Z,82.64
2022-09-15T07:17:43.656Z,82.56
2022-09-15T07:18:15.739Z,82.59
2022-09-15T07:18:51.694Z,82.68
2022-09-15T07:19:23.918Z,82.50
2022-09-15T07:19:56.051Z,82.14
2022-09-15T07:20:30.713Z,82.37
2022-09-15T07:21:07.497Z,82.38
2022-09-15T07:21:42.298Z,82.05
2022-09-15T07:22:14.410Z,81.73
2022-09-15T07:22:46.674Z,81.54
2022-09-15T07:23:21.935Z,81.48
2022-09-15T07:23:57.803Z,81.36
2022-09-15T07:24:32.483Z,81.45
2022-09-15T07:25:05.403Z,81.63
2022-09-15T07:25:37.508Z,81.19
2022-09-15T07:26:14.711Z,81.48
2022-09-15T07:26:46.846Z,81.01
2022-09-15T07:27:18.951Z,81.20
2022-09-15T07:27:53.691Z,80.89
2022-09-15T07:28:25.819Z,80.94
2022-09-15T07:29:02.666Z,80.76
2022-09-15T07:29:37.709Z,80.64
2022-09-15T07:30:11.510Z,81.03
2022-09-15T07:30:46.960Z,80.94
2022-09-15T07:31:21.452Z,80.82
2022-09-15T07:31:56.372Z,80.81